sensor_id;sensor_type;location;lat;lon;timestamp;P1;durP1;ratioP1;P2;durP2;ratioP2
23001;SDS011;11667;51.706;4.856;2022-08-24T00:00:31;14.70;;;11.20;;
23001;SDS011;11667;51.706;4.856;2022-08-24T00:03:01;20.12;;;13.18;;
23001;SDS011;11667;51.706;4.856;2022-08-24T00:05:31;21.30;;;14.68;;
23001;SDS011;11667;51.706;4.856;2022-08-24T00:08:01;25.12;;;17.00;;
23001;SDS011;11667;51.706;4.856;2022-08-24T00:10:31;21.23;;;15.30;;
23001;SDS011;11667;51.706;4.856;2022-08-24T00:13:01;27.10;;;19.23;;
23001;SDS011;11667;51.706;4.856;2022-08-24T00:15:30;25.50;;;17.77;;
23001;SDS011;11667;51.706;4.856;2022-08-24T00:18:00;28.57;;;19.75;;
23001;SDS011;11667;51.706;4.856;2022-08-24T00:20:30;25.77;;;18.15;;
23001;SDS011;11667;51.706;4.856;2022-08-24T00:22:59;16.05;;;12.10;;
23001;SDS011;11667;51.706;4.856;2022-08-24T00:25:29;21.07;;;15.58;;
23001;SDS011;11667;51.706;4.856;2022-08-24T00:27:59;19.70;;;14.93;;
23001;SDS011;11667;51.706;4.856;2022-08-24T00:30:28;26.90;;;18.52;;
23001;SDS011;11667;51.706;4.856;2022-08-24T00:32:58;27.52;;;19.77;;
23001;SDS011;11667;51.706;4.856;2022-08-24T00:35:28;24.60;;;18.20;;
23001;SDS011;11667;51.706;4.856;2022-08-24T00:37:57;18.55;;;13.28;;
23001;SDS011;11667;51.706;4.856;2022-08-24T00:40:28;25.17;;;17.75;;
23001;SDS011;11667;51.706;4.856;2022-08-24T00:43:01;23.50;;;18.07;;
23001;SDS011;11667;51.706;4.856;2022-08-24T00:45:39;23.95;;;16.73;;
23001;SDS011;11667;51.706;4.856;2022-08-24T00:50:53;30.80;;;22.05;;
23001;SDS011;11667;51.706;4.856;2022-08-24T00:53:30;33.67;;;21.97;;
23001;SDS011;11667;51.706;4.856;2022-08-24T00:56:04;31.33;;;22.73;;
23001;SDS011;11667;51.706;4.856;2022-08-24T00:58:47;23.92;;;17.17;;
23001;SDS011;11667;51.706;4.856;2022-08-24T01:01:14;19.52;;;13.35;;
23001;SDS011;11667;51.706;4.856;2022-08-24T01:03:44;23.32;;;15.75;;
23001;SDS011;11667;51.706;4.856;2022-08-24T01:06:14;25.23;;;17.35;;
23001;SDS011;11667;51.706;4.856;2022-08-24T01:08:44;29.52;;;20.82;;
23001;SDS011;11667;51.706;4.856;2022-08-24T01:11:16;31.35;;;21.07;;
23001;SDS011;11667;51.706;4.856;2022-08-24T01:13:47;31.97;;;23.50;;
23001;SDS011;11667;51.706;4.856;2022-08-24T01:16:18;27.73;;;19.17;;
23001;SDS011;11667;51.706;4.856;2022-08-24T01:19:28;19.15;;;13.25;;
23001;SDS011;11667;51.706;4.856;2022-08-24T01:21:58;21.33;;;12.43;;
23001;SDS011;11667;51.706;4.856;2022-08-24T01:24:34;23.90;;;17.35;;
23001;SDS011;11667;51.706;4.856;2022-08-24T01:27:04;51.90;;;35.38;;
23001;SDS011;11667;51.706;4.856;2022-08-24T01:29:37;21.12;;;14.95;;
23001;SDS011;11667;51.706;4.856;2022-08-24T01:32:07;17.73;;;12.50;;
23001;SDS011;11667;51.706;4.856;2022-08-24T01:34:37;14.90;;;11.45;;
23001;SDS011;11667;51.706;4.856;2022-08-24T01:37:07;17.25;;;11.55;;
23001;SDS011;11667;51.706;4.856;2022-08-24T01:39:40;18.70;;;12.00;;
23001;SDS011;11667;51.706;4.856;2022-08-24T01:42:12;22.07;;;14.70;;
23001;SDS011;11667;51.706;4.856;2022-08-24T01:44:44;25.55;;;17.15;;
23001;SDS011;11667;51.706;4.856;2022-08-24T01:47:14;27.10;;;17.52;;
23001;SDS011;11667;51.706;4.856;2022-08-24T01:49:45;21.62;;;15.63;;
23001;SDS011;11667;51.706;4.856;2022-08-24T01:52:18;24.30;;;15.55;;
23001;SDS011;11667;51.706;4.856;2022-08-24T01:54:50;23.73;;;16.23;;
23001;SDS011;11667;51.706;4.856;2022-08-24T01:57:24;22.25;;;16.57;;
23001;SDS011;11667;51.706;4.856;2022-08-24T01:59:55;19.95;;;16.40;;
23001;SDS011;11667;51.706;4.856;2022-08-24T02:02:26;20.90;;;16.45;;
23001;SDS011;11667;51.706;4.856;2022-08-24T02:04:58;22.20;;;18.48;;
23001;SDS011;11667;51.706;4.856;2022-08-24T02:07:28;17.02;;;13.58;;
23001;SDS011;11667;51.706;4.856;2022-08-24T02:09:59;29.02;;;20.90;;
23001;SDS011;11667;51.706;4.856;2022-08-24T02:12:28;23.32;;;17.12;;
23001;SDS011;11667;51.706;4.856;2022-08-24T02:14:58;31.85;;;21.33;;
23001;SDS011;11667;51.706;4.856;2022-08-24T02:17:29;24.10;;;18.12;;
23001;SDS011;11667;51.706;4.856;2022-08-24T02:19:58;35.68;;;22.10;;
23001;SDS011;11667;51.706;4.856;2022-08-24T02:22:28;41.77;;;28.02;;
23001;SDS011;11667;51.706;4.856;2022-08-24T02:24:57;47.85;;;30.72;;
23001;SDS011;11667;51.706;4.856;2022-08-24T02:27:28;54.30;;;34.90;;
23001;SDS011;11667;51.706;4.856;2022-08-24T02:29:58;47.67;;;31.80;;
23001;SDS011;11667;51.706;4.856;2022-08-24T02:32:27;47.62;;;31.90;;
23001;SDS011;11667;51.706;4.856;2022-08-24T02:34:56;44.83;;;30.90;;
23001;SDS011;11667;51.706;4.856;2022-08-24T02:37:26;47.75;;;32.48;;
23001;SDS011;11667;51.706;4.856;2022-08-24T02:39:55;50.43;;;33.95;;
23001;SDS011;11667;51.706;4.856;2022-08-24T02:42:25;49.77;;;34.43;;
23001;SDS011;11667;51.706;4.856;2022-08-24T02:44:54;53.50;;;35.60;;
23001;SDS011;11667;51.706;4.856;2022-08-24T02:47:24;51.18;;;33.88;;
23001;SDS011;11667;51.706;4.856;2022-08-24T02:49:56;53.90;;;35.35;;
23001;SDS011;11667;51.706;4.856;2022-08-24T02:52:26;58.75;;;36.13;;
23001;SDS011;11667;51.706;4.856;2022-08-24T02:54:56;55.45;;;36.30;;
23001;SDS011;11667;51.706;4.856;2022-08-24T02:57:25;60.60;;;38.05;;
23001;SDS011;11667;51.706;4.856;2022-08-24T02:59:55;52.05;;;33.40;;
23001;SDS011;11667;51.706;4.856;2022-08-24T03:02:24;42.90;;;30.50;;
23001;SDS011;11667;51.706;4.856;2022-08-24T03:04:54;39.75;;;25.68;;
23001;SDS011;11667;51.706;4.856;2022-08-24T03:07:23;26.55;;;18.23;;
23001;SDS011;11667;51.706;4.856;2022-08-24T03:09:53;45.15;;;29.63;;
23001;SDS011;11667;51.706;4.856;2022-08-24T03:12:22;52.30;;;35.35;;
23001;SDS011;11667;51.706;4.856;2022-08-24T03:14:52;27.98;;;18.60;;
23001;SDS011;11667;51.706;4.856;2022-08-24T03:17:23;21.87;;;13.97;;
23001;SDS011;11667;51.706;4.856;2022-08-24T03:19:53;26.57;;;18.42;;
23001;SDS011;11667;51.706;4.856;2022-08-24T03:22:22;26.97;;;19.87;;
23001;SDS011;11667;51.706;4.856;2022-08-24T03:24:52;34.73;;;23.87;;
23001;SDS011;11667;51.706;4.856;2022-08-24T03:27:21;29.18;;;21.07;;
23001;SDS011;11667;51.706;4.856;2022-08-24T03:29:51;34.75;;;25.65;;
23001;SDS011;11667;51.706;4.856;2022-08-24T03:32:21;44.00;;;29.27;;
23001;SDS011;11667;51.706;4.856;2022-08-24T03:34:50;42.23;;;28.07;;
23001;SDS011;11667;51.706;4.856;2022-08-24T03:37:20;38.00;;;26.30;;
23001;SDS011;11667;51.706;4.856;2022-08-24T03:39:51;48.55;;;32.13;;
23001;SDS011;11667;51.706;4.856;2022-08-24T03:42:20;42.33;;;28.67;;
23001;SDS011;11667;51.706;4.856;2022-08-24T03:44:50;46.28;;;30.17;;
23001;SDS011;11667;51.706;4.856;2022-08-24T03:47:19;41.95;;;27.70;;
23001;SDS011;11667;51.706;4.856;2022-08-24T03:49:49;51.45;;;34.25;;
23001;SDS011;11667;51.706;4.856;2022-08-24T03:52:19;49.88;;;33.25;;
23001;SDS011;11667;51.706;4.856;2022-08-24T03:54:51;54.83;;;35.97;;
23001;SDS011;11667;51.706;4.856;2022-08-24T03:57:20;58.05;;;39.13;;
23001;SDS011;11667;51.706;4.856;2022-08-24T03:59:50;55.50;;;37.13;;
23001;SDS011;11667;51.706;4.856;2022-08-24T04:02:19;46.77;;;29.85;;
23001;SDS011;11667;51.706;4.856;2022-08-24T04:04:49;41.20;;;27.58;;
23001;SDS011;11667;51.706;4.856;2022-08-24T04:07:19;48.98;;;31.77;;
23001;SDS011;11667;51.706;4.856;2022-08-24T04:09:49;55.63;;;34.23;;
23001;SDS011;11667;51.706;4.856;2022-08-24T04:12:20;44.93;;;30.92;;
23001;SDS011;11667;51.706;4.856;2022-08-24T04:14:51;43.58;;;29.50;;
23001;SDS011;11667;51.706;4.856;2022-08-24T04:17:24;35.83;;;23.67;;
23001;SDS011;11667;51.706;4.856;2022-08-24T04:19:53;39.27;;;27.82;;
23001;SDS011;11667;51.706;4.856;2022-08-24T04:22:28;42.03;;;27.93;;
23001;SDS011;11667;51.706;4.856;2022-08-24T04:24:59;47.43;;;32.53;;
23001;SDS011;11667;51.706;4.856;2022-08-24T04:27:30;51.23;;;34.18;;
23001;SDS011;11667;51.706;4.856;2022-08-24T04:29:59;54.58;;;37.13;;
23001;SDS011;11667;51.706;4.856;2022-08-24T04:32:32;57.43;;;37.28;;
23001;SDS011;11667;51.706;4.856;2022-08-24T04:35:02;52.43;;;35.92;;
23001;SDS011;11667;51.706;4.856;2022-08-24T04:37:32;54.08;;;35.98;;
23001;SDS011;11667;51.706;4.856;2022-08-24T04:40:02;42.25;;;27.65;;
23001;SDS011;11667;51.706;4.856;2022-08-24T04:42:36;43.68;;;28.70;;
23001;SDS011;11667;51.706;4.856;2022-08-24T04:45:06;41.08;;;26.95;;
23001;SDS011;11667;51.706;4.856;2022-08-24T04:47:36;49.90;;;33.55;;
23001;SDS011;11667;51.706;4.856;2022-08-24T04:50:05;56.42;;;36.30;;
23001;SDS011;11667;51.706;4.856;2022-08-24T04:52:35;60.03;;;37.78;;
23001;SDS011;11667;51.706;4.856;2022-08-24T04:55:04;55.98;;;36.60;;
23001;SDS011;11667;51.706;4.856;2022-08-24T04:57:34;52.75;;;35.52;;
23001;SDS011;11667;51.706;4.856;2022-08-24T05:00:04;56.37;;;36.13;;
23001;SDS011;11667;51.706;4.856;2022-08-24T05:02:36;56.13;;;37.30;;
23001;SDS011;11667;51.706;4.856;2022-08-24T05:05:11;54.90;;;35.20;;
23001;SDS011;11667;51.706;4.856;2022-08-24T05:07:41;60.67;;;37.28;;
23001;SDS011;11667;51.706;4.856;2022-08-24T05:10:12;47.95;;;31.48;;
23001;SDS011;11667;51.706;4.856;2022-08-24T05:12:43;40.28;;;29.02;;
23001;SDS011;11667;51.706;4.856;2022-08-24T05:15:15;55.03;;;35.95;;
23001;SDS011;11667;51.706;4.856;2022-08-24T05:17:45;41.88;;;27.87;;
23001;SDS011;11667;51.706;4.856;2022-08-24T05:20:16;42.43;;;27.42;;
23001;SDS011;11667;51.706;4.856;2022-08-24T05:22:45;40.78;;;28.20;;
23001;SDS011;11667;51.706;4.856;2022-08-24T05:25:17;49.38;;;32.67;;
23001;SDS011;11667;51.706;4.856;2022-08-24T05:27:48;50.10;;;33.55;;
23001;SDS011;11667;51.706;4.856;2022-08-24T05:30:18;47.13;;;32.50;;
23001;SDS011;11667;51.706;4.856;2022-08-24T05:32:48;51.00;;;35.05;;
23001;SDS011;11667;51.706;4.856;2022-08-24T05:35:18;49.23;;;32.90;;
23001;SDS011;11667;51.706;4.856;2022-08-24T05:37:50;55.30;;;38.08;;
23001;SDS011;11667;51.706;4.856;2022-08-24T05:40:20;51.37;;;34.88;;
23001;SDS011;11667;51.706;4.856;2022-08-24T05:45:21;46.73;;;30.45;;
23001;SDS011;11667;51.706;4.856;2022-08-24T05:47:51;41.25;;;28.62;;
23001;SDS011;11667;51.706;4.856;2022-08-24T05:50:38;38.28;;;25.95;;
23001;SDS011;11667;51.706;4.856;2022-08-24T05:53:08;31.25;;;22.85;;
23001;SDS011;11667;51.706;4.856;2022-08-24T05:55:39;27.83;;;21.37;;
23001;SDS011;11667;51.706;4.856;2022-08-24T05:58:09;28.92;;;20.45;;
23001;SDS011;11667;51.706;4.856;2022-08-24T06:00:40;26.68;;;19.65;;
23001;SDS011;11667;51.706;4.856;2022-08-24T06:03:17;28.45;;;19.15;;
23001;SDS011;11667;51.706;4.856;2022-08-24T06:05:44;26.33;;;19.70;;
23001;SDS011;11667;51.706;4.856;2022-08-24T06:08:15;28.55;;;20.17;;
23001;SDS011;11667;51.706;4.856;2022-08-24T06:10:45;29.12;;;19.62;;
23001;SDS011;11667;51.706;4.856;2022-08-24T06:13:16;32.78;;;21.25;;
23001;SDS011;11667;51.706;4.856;2022-08-24T06:15:46;28.57;;;21.12;;
23001;SDS011;11667;51.706;4.856;2022-08-24T06:18:17;34.07;;;22.73;;
23001;SDS011;11667;51.706;4.856;2022-08-24T06:20:47;33.08;;;24.47;;
23001;SDS011;11667;51.706;4.856;2022-08-24T06:23:18;34.50;;;23.83;;
23001;SDS011;11667;51.706;4.856;2022-08-24T06:25:50;31.27;;;23.32;;
23001;SDS011;11667;51.706;4.856;2022-08-24T06:28:38;38.83;;;26.27;;
23001;SDS011;11667;51.706;4.856;2022-08-24T06:31:08;39.55;;;28.30;;
23001;SDS011;11667;51.706;4.856;2022-08-24T06:33:37;37.67;;;27.70;;
23001;SDS011;11667;51.706;4.856;2022-08-24T06:36:08;39.08;;;27.62;;
23001;SDS011;11667;51.706;4.856;2022-08-24T06:38:37;38.73;;;27.87;;
23001;SDS011;11667;51.706;4.856;2022-08-24T06:41:15;39.00;;;28.17;;
23001;SDS011;11667;51.706;4.856;2022-08-24T06:43:40;37.73;;;27.77;;
23001;SDS011;11667;51.706;4.856;2022-08-24T06:46:10;37.65;;;26.62;;
23001;SDS011;11667;51.706;4.856;2022-08-24T06:48:42;35.65;;;26.68;;
23001;SDS011;11667;51.706;4.856;2022-08-24T06:51:13;37.13;;;27.80;;
23001;SDS011;11667;51.706;4.856;2022-08-24T06:53:45;38.73;;;26.75;;
23001;SDS011;11667;51.706;4.856;2022-08-24T06:56:15;35.73;;;26.23;;
23001;SDS011;11667;51.706;4.856;2022-08-24T06:58:45;38.40;;;25.68;;
23001;SDS011;11667;51.706;4.856;2022-08-24T07:01:17;36.40;;;26.00;;
23001;SDS011;11667;51.706;4.856;2022-08-24T07:03:49;36.40;;;26.35;;
23001;SDS011;11667;51.706;4.856;2022-08-24T07:06:35;33.88;;;25.20;;
23001;SDS011;11667;51.706;4.856;2022-08-24T07:09:05;36.50;;;25.75;;
23001;SDS011;11667;51.706;4.856;2022-08-24T07:11:35;36.40;;;26.20;;
23001;SDS011;11667;51.706;4.856;2022-08-24T07:14:05;41.65;;;27.10;;
23001;SDS011;11667;51.706;4.856;2022-08-24T07:16:35;38.20;;;27.30;;
23001;SDS011;11667;51.706;4.856;2022-08-24T07:19:05;36.35;;;26.77;;
23001;SDS011;11667;51.706;4.856;2022-08-24T07:21:34;33.95;;;25.65;;
23001;SDS011;11667;51.706;4.856;2022-08-24T07:24:03;34.95;;;24.40;;
23001;SDS011;11667;51.706;4.856;2022-08-24T07:26:36;30.35;;;23.05;;
23001;SDS011;11667;51.706;4.856;2022-08-24T07:29:10;30.02;;;21.52;;
23001;SDS011;11667;51.706;4.856;2022-08-24T07:31:44;32.20;;;24.35;;
23001;SDS011;11667;51.706;4.856;2022-08-24T07:34:28;34.33;;;23.40;;
23001;SDS011;11667;51.706;4.856;2022-08-24T07:36:59;35.65;;;25.45;;
23001;SDS011;11667;51.706;4.856;2022-08-24T07:39:30;31.15;;;24.02;;
23001;SDS011;11667;51.706;4.856;2022-08-24T07:42:00;33.83;;;24.67;;
23001;SDS011;11667;51.706;4.856;2022-08-24T07:44:31;33.00;;;23.40;;
23001;SDS011;11667;51.706;4.856;2022-08-24T07:47:00;29.18;;;22.05;;
23001;SDS011;11667;51.706;4.856;2022-08-24T07:49:32;26.77;;;20.77;;
23001;SDS011;11667;51.706;4.856;2022-08-24T07:52:04;29.32;;;21.90;;
23001;SDS011;11667;51.706;4.856;2022-08-24T07:54:33;30.37;;;23.55;;
23001;SDS011;11667;51.706;4.856;2022-08-24T07:57:03;31.85;;;22.60;;
23001;SDS011;11667;51.706;4.856;2022-08-24T07:59:34;29.67;;;20.45;;
23001;SDS011;11667;51.706;4.856;2022-08-24T08:02:04;26.07;;;20.08;;
23001;SDS011;11667;51.706;4.856;2022-08-24T08:04:34;26.57;;;21.33;;
23001;SDS011;11667;51.706;4.856;2022-08-24T08:07:04;29.07;;;21.70;;
23001;SDS011;11667;51.706;4.856;2022-08-24T08:09:37;26.15;;;19.92;;
23001;SDS011;11667;51.706;4.856;2022-08-24T08:12:07;25.23;;;20.12;;
23001;SDS011;11667;51.706;4.856;2022-08-24T08:14:38;22.90;;;16.57;;
23001;SDS011;11667;51.706;4.856;2022-08-24T08:17:07;18.37;;;15.35;;
23001;SDS011;11667;51.706;4.856;2022-08-24T08:19:37;22.27;;;17.10;;
23001;SDS011;11667;51.706;4.856;2022-08-24T08:22:07;19.82;;;15.25;;
23001;SDS011;11667;51.706;4.856;2022-08-24T08:25:13;19.25;;;14.85;;
23001;SDS011;11667;51.706;4.856;2022-08-24T08:27:44;11.48;;;8.58;;
23001;SDS011;11667;51.706;4.856;2022-08-24T08:30:15;11.38;;;8.58;;
23001;SDS011;11667;51.706;4.856;2022-08-24T08:32:44;14.85;;;10.43;;
23001;SDS011;11667;51.706;4.856;2022-08-24T08:35:14;20.20;;;15.00;;
23001;SDS011;11667;51.706;4.856;2022-08-24T08:37:44;24.20;;;15.20;;
23001;SDS011;11667;51.706;4.856;2022-08-24T08:40:20;15.72;;;12.73;;
23001;SDS011;11667;51.706;4.856;2022-08-24T08:43:09;18.93;;;14.60;;
23001;SDS011;11667;51.706;4.856;2022-08-24T08:45:46;15.80;;;12.50;;
23001;SDS011;11667;51.706;4.856;2022-08-24T08:48:58;17.17;;;12.30;;
23001;SDS011;11667;51.706;4.856;2022-08-24T08:54:41;14.45;;;12.18;;
23001;SDS011;11667;51.706;4.856;2022-08-24T09:00:21;15.72;;;11.43;;
23001;SDS011;11667;51.706;4.856;2022-08-24T09:08:35;13.22;;;9.03;;
23001;SDS011;11667;51.706;4.856;2022-08-24T09:19:42;12.33;;;8.45;;
23001;SDS011;11667;51.706;4.856;2022-08-24T09:22:15;12.10;;;8.10;;
23001;SDS011;11667;51.706;4.856;2022-08-24T09:27:45;10.25;;;6.78;;
23001;SDS011;11667;51.706;4.856;2022-08-24T09:30:34;9.28;;;6.33;;
23001;SDS011;11667;51.706;4.856;2022-08-24T09:33:22;9.05;;;7.10;;
23001;SDS011;11667;51.706;4.856;2022-08-24T09:36:05;9.53;;;7.12;;
23001;SDS011;11667;51.706;4.856;2022-08-24T09:44:14;8.43;;;6.33;;
23001;SDS011;11667;51.706;4.856;2022-08-24T09:55:43;7.60;;;5.20;;
23001;SDS011;11667;51.706;4.856;2022-08-24T10:01:21;6.45;;;4.90;;
23001;SDS011;11667;51.706;4.856;2022-08-24T10:04:18;9.30;;;4.70;;
23001;SDS011;11667;51.706;4.856;2022-08-24T10:15:32;10.60;;;6.28;;
23001;SDS011;11667;51.706;4.856;2022-08-24T10:18:25;6.85;;;5.22;;
23001;SDS011;11667;51.706;4.856;2022-08-24T10:20:48;6.45;;;3.92;;
23001;SDS011;11667;51.706;4.856;2022-08-24T10:23:44;9.10;;;3.77;;
23001;SDS011;11667;51.706;4.856;2022-08-24T10:27:19;7.12;;;4.62;;
23001;SDS011;11667;51.706;4.856;2022-08-24T10:34:40;5.28;;;3.85;;
23001;SDS011;11667;51.706;4.856;2022-08-24T10:40:03;7.87;;;4.17;;
23001;SDS011;11667;51.706;4.856;2022-08-24T10:53:49;5.17;;;3.10;;
23001;SDS011;11667;51.706;4.856;2022-08-24T10:56:35;7.83;;;3.77;;
23001;SDS011;11667;51.706;4.856;2022-08-24T10:59:17;6.25;;;3.05;;
23001;SDS011;11667;51.706;4.856;2022-08-24T11:02:03;5.40;;;2.70;;
23001;SDS011;11667;51.706;4.856;2022-08-24T11:04:34;5.20;;;2.10;;
23001;SDS011;11667;51.706;4.856;2022-08-24T11:07:15;2.98;;;2.08;;
23001;SDS011;11667;51.706;4.856;2022-08-24T11:09:56;3.50;;;2.50;;
23001;SDS011;11667;51.706;4.856;2022-08-24T11:12:28;4.47;;;2.33;;
23001;SDS011;11667;51.706;4.856;2022-08-24T11:15:05;5.97;;;2.60;;
23001;SDS011;11667;51.706;4.856;2022-08-24T11:17:53;3.70;;;2.52;;
23001;SDS011;11667;51.706;4.856;2022-08-24T11:23:04;2.65;;;2.20;;
23001;SDS011;11667;51.706;4.856;2022-08-24T11:25:55;3.47;;;2.20;;
23001;SDS011;11667;51.706;4.856;2022-08-24T11:28:39;3.98;;;2.15;;
23001;SDS011;11667;51.706;4.856;2022-08-24T11:34:05;3.02;;;2.50;;
23001;SDS011;11667;51.706;4.856;2022-08-24T11:36:37;4.33;;;2.50;;
23001;SDS011;11667;51.706;4.856;2022-08-24T11:39:20;3.40;;;2.37;;
23001;SDS011;11667;51.706;4.856;2022-08-24T11:42:13;3.62;;;2.52;;
23001;SDS011;11667;51.706;4.856;2022-08-24T11:44:52;4.42;;;2.30;;
23001;SDS011;11667;51.706;4.856;2022-08-24T11:47:28;5.67;;;2.70;;
23001;SDS011;11667;51.706;4.856;2022-08-24T11:50:00;49.67;;;3.37;;
23001;SDS011;11667;51.706;4.856;2022-08-24T11:52:38;4.83;;;2.00;;
23001;SDS011;11667;51.706;4.856;2022-08-24T11:55:13;5.90;;;2.50;;
23001;SDS011;11667;51.706;4.856;2022-08-24T11:57:50;4.12;;;1.77;;
23001;SDS011;11667;51.706;4.856;2022-08-24T12:00:47;4.22;;;1.85;;
23001;SDS011;11667;51.706;4.856;2022-08-24T12:03:41;2.45;;;1.70;;
23001;SDS011;11667;51.706;4.856;2022-08-24T12:05:59;3.70;;;1.72;;
23001;SDS011;11667;51.706;4.856;2022-08-24T12:11:29;4.12;;;1.70;;
23001;SDS011;11667;51.706;4.856;2022-08-24T12:14:27;2.62;;;1.85;;
23001;SDS011;11667;51.706;4.856;2022-08-24T12:19:49;5.60;;;2.20;;
23001;SDS011;11667;51.706;4.856;2022-08-24T12:22:20;5.47;;;2.25;;
23001;SDS011;11667;51.706;4.856;2022-08-24T12:24:53;3.43;;;2.40;;
23001;SDS011;11667;51.706;4.856;2022-08-24T12:27:32;2.62;;;2.17;;
23001;SDS011;11667;51.706;4.856;2022-08-24T12:30:08;4.03;;;2.40;;
23001;SDS011;11667;51.706;4.856;2022-08-24T12:35:37;2.30;;;2.05;;
23001;SDS011;11667;51.706;4.856;2022-08-24T12:37:47;3.42;;;2.50;;
23001;SDS011;11667;51.706;4.856;2022-08-24T12:43:04;6.25;;;2.55;;
23001;SDS011;11667;51.706;4.856;2022-08-24T12:48:09;5.83;;;2.50;;
23001;SDS011;11667;51.706;4.856;2022-08-24T12:53:49;3.65;;;2.40;;
23001;SDS011;11667;51.706;4.856;2022-08-24T12:56:30;3.85;;;2.47;;
23001;SDS011;11667;51.706;4.856;2022-08-24T12:59:06;3.90;;;2.45;;
23001;SDS011;11667;51.706;4.856;2022-08-24T13:01:59;3.87;;;2.12;;
23001;SDS011;11667;51.706;4.856;2022-08-24T13:09:42;5.20;;;3.15;;
23001;SDS011;11667;51.706;4.856;2022-08-24T13:18:00;3.67;;;1.90;;
23001;SDS011;11667;51.706;4.856;2022-08-24T13:25:54;3.10;;;1.50;;
23001;SDS011;11667;51.706;4.856;2022-08-24T13:28:30;2.35;;;1.42;;
23001;SDS011;11667;51.706;4.856;2022-08-24T13:31:13;1.60;;;1.40;;
23001;SDS011;11667;51.706;4.856;2022-08-24T13:33:56;2.55;;;1.20;;
23001;SDS011;11667;51.706;4.856;2022-08-24T13:42:04;4.17;;;1.60;;
23001;SDS011;11667;51.706;4.856;2022-08-24T13:51:06;3.37;;;1.70;;
23001;SDS011;11667;51.706;4.856;2022-08-24T13:59:12;2.20;;;1.77;;
23001;SDS011;11667;51.706;4.856;2022-08-24T14:07:27;4.08;;;1.70;;
23001;SDS011;11667;51.706;4.856;2022-08-24T14:10:09;3.17;;;1.82;;
23001;SDS011;11667;51.706;4.856;2022-08-24T14:12:53;4.87;;;2.00;;
23001;SDS011;11667;51.706;4.856;2022-08-24T14:18:10;2.40;;;1.90;;
23001;SDS011;11667;51.706;4.856;2022-08-24T14:21:11;2.87;;;1.90;;
23001;SDS011;11667;51.706;4.856;2022-08-24T14:23:55;6.45;;;2.20;;
23001;SDS011;11667;51.706;4.856;2022-08-24T14:27:07;2.10;;;1.90;;
23001;SDS011;11667;51.706;4.856;2022-08-24T14:45:52;2.67;;;2.17;;
23001;SDS011;11667;51.706;4.856;2022-08-24T14:54:14;6.20;;;2.40;;
23001;SDS011;11667;51.706;4.856;2022-08-24T14:56:49;3.70;;;2.22;;
23001;SDS011;11667;51.706;4.856;2022-08-24T15:02:35;4.65;;;2.35;;
23001;SDS011;11667;51.706;4.856;2022-08-24T15:07:59;4.40;;;2.00;;
23001;SDS011;11667;51.706;4.856;2022-08-24T15:10:47;4.28;;;2.05;;
23001;SDS011;11667;51.706;4.856;2022-08-24T15:13:30;7.42;;;2.60;;
23001;SDS011;11667;51.706;4.856;2022-08-24T15:16:27;5.25;;;2.20;;
23001;SDS011;11667;51.706;4.856;2022-08-24T15:19:06;5.22;;;2.08;;
23001;SDS011;11667;51.706;4.856;2022-08-24T15:21:55;5.10;;;2.20;;
23001;SDS011;11667;51.706;4.856;2022-08-24T15:24:38;5.03;;;2.10;;
23001;SDS011;11667;51.706;4.856;2022-08-24T15:27:15;2.37;;;2.15;;
23001;SDS011;11667;51.706;4.856;2022-08-24T15:29:51;3.62;;;2.15;;
23001;SDS011;11667;51.706;4.856;2022-08-24T15:32:17;5.42;;;2.30;;
23001;SDS011;11667;51.706;4.856;2022-08-24T15:34:56;4.42;;;2.02;;
23001;SDS011;11667;51.706;4.856;2022-08-24T15:39:58;5.87;;;2.00;;
23001;SDS011;11667;51.706;4.856;2022-08-24T15:42:33;4.28;;;2.30;;
23001;SDS011;11667;51.706;4.856;2022-08-24T15:45:04;2.58;;;2.00;;
23001;SDS011;11667;51.706;4.856;2022-08-24T15:47:34;3.08;;;2.17;;
23001;SDS011;11667;51.706;4.856;2022-08-24T15:50:06;3.80;;;2.58;;
23001;SDS011;11667;51.706;4.856;2022-08-24T15:55:38;4.30;;;2.17;;
23001;SDS011;11667;51.706;4.856;2022-08-24T15:58:14;3.00;;;2.15;;
23001;SDS011;11667;51.706;4.856;2022-08-24T16:00:41;2.30;;;2.02;;
23001;SDS011;11667;51.706;4.856;2022-08-24T16:03:45;3.47;;;2.20;;
23001;SDS011;11667;51.706;4.856;2022-08-24T16:09:11;3.33;;;1.95;;
23001;SDS011;11667;51.706;4.856;2022-08-24T16:11:46;6.28;;;2.05;;
23001;SDS011;11667;51.706;4.856;2022-08-24T16:14:32;2.55;;;1.98;;
23001;SDS011;11667;51.706;4.856;2022-08-24T16:17:50;6.47;;;2.17;;
23001;SDS011;11667;51.706;4.856;2022-08-24T16:19:55;3.05;;;2.47;;
23001;SDS011;11667;51.706;4.856;2022-08-24T16:22:33;4.60;;;2.40;;
23001;SDS011;11667;51.706;4.856;2022-08-24T16:25:11;3.45;;;2.27;;
23001;SDS011;11667;51.706;4.856;2022-08-24T16:27:55;6.17;;;2.33;;
23001;SDS011;11667;51.706;4.856;2022-08-24T16:30:42;6.35;;;2.20;;
23001;SDS011;11667;51.706;4.856;2022-08-24T16:36:04;2.52;;;1.98;;
23001;SDS011;11667;51.706;4.856;2022-08-24T16:41:05;5.83;;;2.30;;
23001;SDS011;11667;51.706;4.856;2022-08-24T16:43:38;4.17;;;2.27;;
23001;SDS011;11667;51.706;4.856;2022-08-24T16:46:09;2.45;;;2.25;;
23001;SDS011;11667;51.706;4.856;2022-08-24T16:48:39;3.02;;;2.20;;
23001;SDS011;11667;51.706;4.856;2022-08-24T16:51:08;3.50;;;2.20;;
23001;SDS011;11667;51.706;4.856;2022-08-24T16:53:37;3.50;;;2.33;;
23001;SDS011;11667;51.706;4.856;2022-08-24T16:56:07;3.58;;;2.10;;
23001;SDS011;11667;51.706;4.856;2022-08-24T16:58:38;4.25;;;2.50;;
23001;SDS011;11667;51.706;4.856;2022-08-24T17:01:07;4.75;;;2.60;;
23001;SDS011;11667;51.706;4.856;2022-08-24T17:03:36;4.12;;;2.30;;
23001;SDS011;11667;51.706;4.856;2022-08-24T17:06:06;4.00;;;2.40;;
23001;SDS011;11667;51.706;4.856;2022-08-24T17:08:37;2.95;;;2.50;;
23001;SDS011;11667;51.706;4.856;2022-08-24T17:11:07;4.35;;;2.45;;
23001;SDS011;11667;51.706;4.856;2022-08-24T17:13:36;5.12;;;2.50;;
23001;SDS011;11667;51.706;4.856;2022-08-24T17:16:08;3.90;;;2.52;;
23001;SDS011;11667;51.706;4.856;2022-08-24T17:18:39;3.87;;;2.50;;
23001;SDS011;11667;51.706;4.856;2022-08-24T17:21:09;2.90;;;2.47;;
23001;SDS011;11667;51.706;4.856;2022-08-24T17:23:38;4.95;;;2.40;;
23001;SDS011;11667;51.706;4.856;2022-08-24T17:26:09;4.97;;;2.50;;
23001;SDS011;11667;51.706;4.856;2022-08-24T17:28:42;5.87;;;2.47;;
23001;SDS011;11667;51.706;4.856;2022-08-24T17:33:42;2.70;;;2.37;;
23001;SDS011;11667;51.706;4.856;2022-08-24T17:36:20;4.78;;;2.45;;
23001;SDS011;11667;51.706;4.856;2022-08-24T17:38:43;5.70;;;2.60;;
23001;SDS011;11667;51.706;4.856;2022-08-24T17:41:17;3.77;;;2.60;;
23001;SDS011;11667;51.706;4.856;2022-08-24T17:43:46;5.05;;;2.62;;
23001;SDS011;11667;51.706;4.856;2022-08-24T17:46:15;3.87;;;2.75;;
23001;SDS011;11667;51.706;4.856;2022-08-24T17:48:46;3.92;;;2.42;;
23001;SDS011;11667;51.706;4.856;2022-08-24T17:51:16;3.55;;;2.65;;
23001;SDS011;11667;51.706;4.856;2022-08-24T17:53:45;4.35;;;2.70;;
23001;SDS011;11667;51.706;4.856;2022-08-24T17:56:15;5.00;;;2.60;;
23001;SDS011;11667;51.706;4.856;2022-08-24T17:58:45;4.03;;;2.67;;
23001;SDS011;11667;51.706;4.856;2022-08-24T18:01:32;7.20;;;2.95;;
23001;SDS011;11667;51.706;4.856;2022-08-24T18:04:02;3.83;;;2.72;;
23001;SDS011;11667;51.706;4.856;2022-08-24T18:06:31;3.67;;;2.62;;
23001;SDS011;11667;51.706;4.856;2022-08-24T18:09:03;4.55;;;2.55;;
23001;SDS011;11667;51.706;4.856;2022-08-24T18:11:33;3.45;;;2.42;;